Time;durP1;ratioP1;P1;durP2;ratioP2;P2;SDS_P1;SDS_P2;PMS_P1;PMS_P2;Temp;Humidity;BMP_temperature;BMP_pressure;BME280_temperature;BME280_humidity;BME280_pressure;Samples;Min_cycle;Max_cycle;Signal;HPM_P1;HPM_P2
2022/10/14 00:03:05;;;;;;;20.80;14.20;;;;;;;;;;4438375;32;20367;-87
2022/10/14 00:05:33;;;;;;;20.45;13.45;;;;;;;;;;4435257;32;20260;-86
2022/10/14 00:08:00;;;;;;;22.80;12.65;;;;;;;;;;4435850;32;20201;-87
2022/10/14 00:10:27;;;;;;;27.00;13.68;;;;;;;;;;4435334;32;20213;-86
2022/10/14 00:12:54;;;;;;;22.30;13.55;;;;;;;;;;4435276;32;20557;-87
2022/10/14 00:15:21;;;;;;;19.30;14.50;;;;;;;;;;4435221;32;20205;-87
2022/10/14 00:17:47;;;;;;;21.15;14.57;;;;;;;;;;4435478;32;20224;-86
2022/10/14 00:20:16;;;;;;;30.17;16.58;;;;;;;;;;4435853;32;20223;-86
2022/10/14 00:22:43;;;;;;;25.30;16.23;;;;;;;;;;4435090;32;20266;-87
2022/10/14 00:25:10;;;;;;;27.85;18.15;;;;;;;;;;4434533;32;20753;-86
2022/10/14 00:27:39;;;;;;;37.17;18.42;;;;;;;;;;4436331;32;20213;-86
2022/10/14 00:30:07;;;;;;;40.03;20.17;;;;;;;;;;4435442;32;20311;-86
2022/10/14 00:32:34;;;;;;;25.12;19.08;;;;;;;;;;4435268;32;20209;-86
2022/10/14 00:35:01;;;;;;;35.10;19.25;;;;;;;;;;4434208;32;20244;-87
2022/10/14 00:37:32;;;;;;;26.40;18.75;;;;;;;;;;4436253;32;20212;-86
2022/10/14 00:39:59;;;;;;;25.48;18.08;;;;;;;;;;4436605;32;20224;-87
2022/10/14 00:42:26;;;;;;;25.88;19.40;;;;;;;;;;4436362;32;20287;-86
2022/10/14 00:45:04;;;;;;;30.92;18.70;;;;;;;;;;4436326;32;20236;-86
2022/10/14 00:47:31;;;;;;;30.03;18.90;;;;;;;;;;4442605;32;20226;-87
2022/10/14 00:50:02;;;;;;;36.43;18.33;;;;;;;;;;4440636;32;20253;-86
2022/10/14 00:52:30;;;;;;;32.07;19.53;;;;;;;;;;4442238;32;20664;-87
2022/10/14 00:55:02;;;;;;;27.33;18.00;;;;;;;;;;4441792;32;20258;-86
2022/10/14 00:57:30;;;;;;;35.83;20.00;;;;;;;;;;4439458;32;20268;-86
2022/10/14 01:00:02;;;;;;;26.10;19.00;;;;;;;;;;4433424;32;20278;-86
2022/10/14 01:02:29;;;;;;;26.67;19.45;;;;;;;;;;4434926;32;20253;-86
2022/10/14 01:04:56;;;;;;;27.03;18.67;;;;;;;;;;4433634;32;20307;-86
2022/10/14 01:07:38;;;;;;;31.05;19.35;;;;;;;;;;4435453;32;20223;-86
2022/10/14 01:10:12;;;;;;;31.98;18.30;;;;;;;;;;4436095;32;20281;-87
2022/10/14 01:12:55;;;;;;;22.27;16.00;;;;;;;;;;4432779;32;20640;-86
2022/10/14 01:15:31;;;;;;;21.27;14.73;;;;;;;;;;4424483;32;20244;-87
2022/10/14 01:18:13;;;;;;;27.83;15.02;;;;;;;;;;4426264;32;20260;-87
2022/10/14 01:20:57;;;;;;;21.70;14.27;;;;;;;;;;4426235;32;20213;-87
2022/10/14 01:24:00;;;;;;;23.37;13.87;;;;;;;;;;4426204;32;20224;-87
2022/10/14 01:26:45;;;;;;;21.55;13.23;;;;;;;;;;4428903;32;20226;-85
2022/10/14 01:29:26;;;;;;;26.85;14.23;;;;;;;;;;4430377;32;20292;-85
2022/10/14 01:32:03;;;;;;;21.27;15.07;;;;;;;;;;4431594;32;20275;-87
2022/10/14 01:34:36;;;;;;;28.58;15.65;;;;;;;;;;4432937;32;20292;-87
2022/10/14 01:37:10;;;;;;;22.05;15.32;;;;;;;;;;4431320;32;20258;-86
2022/10/14 01:39:42;;;;;;;30.05;15.10;;;;;;;;;;4427772;32;20735;-86
2022/10/14 01:42:14;;;;;;;24.80;15.02;;;;;;;;;;4427190;32;20220;-87
2022/10/14 01:44:46;;;;;;;23.83;14.73;;;;;;;;;;4426933;32;20241;-86
2022/10/14 01:47:18;;;;;;;28.07;16.63;;;;;;;;;;4426236;32;20205;-87
2022/10/14 01:49:51;;;;;;;27.23;16.00;;;;;;;;;;4424142;32;20220;-86
2022/10/14 01:52:21;;;;;;;24.17;16.13;;;;;;;;;;4424131;32;20240;-86
2022/10/14 01:54:51;;;;;;;28.73;15.13;;;;;;;;;;4423497;32;20688;-86
2022/10/14 01:57:23;;;;;;;28.93;16.43;;;;;;;;;;4423962;32;20272;-86
2022/10/14 01:59:52;;;;;;;25.03;16.37;;;;;;;;;;4423587;32;20596;-86
2022/10/14 02:02:22;;;;;;;30.12;16.10;;;;;;;;;;4423343;32;20217;-86
2022/10/14 02:04:49;;;;;;;23.87;16.60;;;;;;;;;;4423602;32;20302;-86
2022/10/14 02:07:23;;;;;;;30.02;17.33;;;;;;;;;;4423455;32;20221;-87
2022/10/14 02:10:03;;;;;;;34.65;16.83;;;;;;;;;;4423514;32;20220;-86
2022/10/14 02:12:38;;;;;;;25.43;17.67;;;;;;;;;;4423880;32;20241;-87
2022/10/14 02:15:18;;;;;;;29.10;16.52;;;;;;;;;;4422374;32;20229;-86
2022/10/14 02:17:54;;;;;;;23.85;15.48;;;;;;;;;;4423875;32;20275;-86
2022/10/14 02:20:26;;;;;;;27.67;16.10;;;;;;;;;;4423261;32;20239;-86
2022/10/14 02:22:58;;;;;;;27.13;16.35;;;;;;;;;;4423601;32;20251;-87
2022/10/14 02:25:30;;;;;;;24.77;15.73;;;;;;;;;;4421145;32;20252;-87
2022/10/14 02:28:02;;;;;;;27.10;14.77;;;;;;;;;;4423637;32;20256;-86
2022/10/14 02:30:33;;;;;;;27.60;17.57;;;;;;;;;;4423163;32;20217;-86
2022/10/14 02:33:02;;;;;;;21.25;16.92;;;;;;;;;;4423523;32;20238;-87
2022/10/14 02:35:31;;;;;;;25.77;17.55;;;;;;;;;;4423030;32;20300;-86
2022/10/14 02:37:59;;;;;;;23.23;17.47;;;;;;;;;;4422395;32;20213;-87
2022/10/14 02:40:32;;;;;;;27.83;17.48;;;;;;;;;;4422745;32;20354;-86
2022/10/14 02:42:59;;;;;;;27.60;17.30;;;;;;;;;;4422964;32;20594;-86
2022/10/14 02:45:26;;;;;;;26.52;17.85;;;;;;;;;;4422774;32;20314;-86
2022/10/14 02:47:53;;;;;;;33.13;19.67;;;;;;;;;;4423356;32;20217;-87
2022/10/14 02:50:23;;;;;;;25.42;19.48;;;;;;;;;;4422636;32;20233;-86
2022/10/14 02:52:50;;;;;;;25.80;19.90;;;;;;;;;;4423406;32;20549;-87
2022/10/14 02:55:17;;;;;;;30.10;20.67;;;;;;;;;;4422619;32;20299;-86
2022/10/14 02:57:44;;;;;;;26.52;20.60;;;;;;;;;;4422614;32;20259;-86
2022/10/14 03:00:16;;;;;;;28.67;20.50;;;;;;;;;;4422534;32;20662;-87
2022/10/14 03:02:43;;;;;;;24.98;20.92;;;;;;;;;;4421905;32;20301;-86
2022/10/14 03:05:11;;;;;;;34.57;19.40;;;;;;;;;;4421266;32;20291;-87
2022/10/14 03:07:39;;;;;;;25.03;16.93;;;;;;;;;;4422472;32;20254;-86
2022/10/14 03:10:06;;;;;;;24.23;17.50;;;;;;;;;;4422445;32;20283;-86
2022/10/14 03:12:33;;;;;;;22.27;16.50;;;;;;;;;;4421274;32;20286;-86
2022/10/14 03:15:00;;;;;;;26.93;14.77;;;;;;;;;;4422334;32;20229;-86
2022/10/14 03:17:29;;;;;;;19.75;13.57;;;;;;;;;;4422375;32;20213;-86
2022/10/14 03:19:57;;;;;;;18.50;13.03;;;;;;;;;;4422492;32;20217;-86
2022/10/14 03:22:24;;;;;;;19.47;13.67;;;;;;;;;;4422794;32;20329;-86
2022/10/14 03:24:52;;;;;;;21.50;13.93;;;;;;;;;;4422787;32;20225;-86
2022/10/14 03:27:21;;;;;;;29.00;14.67;;;;;;;;;;4422159;32;20274;-87
2022/10/14 03:29:48;;;;;;;18.07;14.13;;;;;;;;;;4422222;32;20248;-86
2022/10/14 03:32:15;;;;;;;19.40;14.10;;;;;;;;;;4422693;32;20213;-87
2022/10/14 03:34:43;;;;;;;28.90;14.23;;;;;;;;;;4422326;32;20231;-87
2022/10/14 03:37:10;;;;;;;23.08;13.45;;;;;;;;;;4421883;32;20232;-86
2022/10/14 03:39:37;;;;;;;23.97;13.73;;;;;;;;;;4422143;32;20288;-87
2022/10/14 03:42:06;;;;;;;20.20;14.73;;;;;;;;;;4422230;32;20289;-87
2022/10/14 03:44:32;;;;;;;23.73;14.50;;;;;;;;;;4422679;32;20227;-86
2022/10/14 03:46:59;;;;;;;26.15;14.63;;;;;;;;;;4421945;32;20242;-86
2022/10/14 03:49:26;;;;;;;20.37;14.67;;;;;;;;;;4420834;32;20243;-86
2022/10/14 03:51:53;;;;;;;28.03;14.37;;;;;;;;;;4421946;32;20228;-87
2022/10/14 03:54:20;;;;;;;23.80;15.50;;;;;;;;;;4421887;32;20213;-87
2022/10/14 03:56:47;;;;;;;25.17;15.33;;;;;;;;;;4422147;32;20769;-87
2022/10/14 03:59:16;;;;;;;27.73;15.43;;;;;;;;;;4420766;32;20289;-87
2022/10/14 04:01:43;;;;;;;18.67;15.50;;;;;;;;;;4421843;32;20290;-87
2022/10/14 04:04:10;;;;;;;27.03;17.63;;;;;;;;;;4421922;32;20220;-87
2022/10/14 04:06:38;;;;;;;23.27;17.00;;;;;;;;;;4421760;32;20456;-86
2022/10/14 04:09:05;;;;;;;30.70;17.53;;;;;;;;;;4421858;32;20226;-86
2022/10/14 04:11:32;;;;;;;24.63;18.70;;;;;;;;;;4421803;32;20228;-87
2022/10/14 04:13:59;;;;;;;25.10;19.00;;;;;;;;;;4422391;32;20239;-86
2022/10/14 04:16:28;;;;;;;24.83;18.20;;;;;;;;;;4421879;32;20228;-87
2022/10/14 04:18:54;;;;;;;27.27;18.87;;;;;;;;;;4421279;32;20252;-87
2022/10/14 04:21:21;;;;;;;32.33;21.10;;;;;;;;;;4421815;32;20225;-87
2022/10/14 04:23:48;;;;;;;32.53;21.63;;;;;;;;;;4422411;32;20693;-87
2022/10/14 04:26:15;;;;;;;35.07;19.60;;;;;;;;;;4420578;32;20248;-87
2022/10/14 04:28:44;;;;;;;30.27;18.53;;;;;;;;;;4421704;32;20675;-86
2022/10/14 04:31:11;;;;;;;24.37;17.17;;;;;;;;;;4421900;32;20562;-87
2022/10/14 04:33:40;;;;;;;26.92;17.75;;;;;;;;;;4421859;32;20300;-87
2022/10/14 04:36:08;;;;;;;25.63;17.33;;;;;;;;;;4421172;32;20309;-86
2022/10/14 04:38:35;;;;;;;22.50;17.55;;;;;;;;;;4421505;32;20669;-86
2022/10/14 04:41:02;;;;;;;24.45;17.70;;;;;;;;;;4421850;32;20223;-86
2022/10/14 04:43:29;;;;;;;20.97;17.47;;;;;;;;;;4421351;32;20236;-86
2022/10/14 04:45:57;;;;;;;24.27;17.90;;;;;;;;;;4421817;32;20280;-87
2022/10/14 04:48:24;;;;;;;22.27;16.87;;;;;;;;;;4421475;32;20652;-87
2022/10/14 04:50:53;;;;;;;22.40;15.75;;;;;;;;;;4423772;32;20305;-86
2022/10/14 04:53:21;;;;;;;28.73;16.77;;;;;;;;;;4424199;32;20232;-86
2022/10/14 04:55:49;;;;;;;27.53;17.97;;;;;;;;;;4424785;32;20540;-86
2022/10/14 04:58:16;;;;;;;29.67;16.65;;;;;;;;;;4424528;32;20332;-87
2022/10/14 05:00:44;;;;;;;27.55;17.15;;;;;;;;;;4424495;32;20217;-86
2022/10/14 05:03:11;;;;;;;19.97;17.30;;;;;;;;;;4423951;32;20255;-87
2022/10/14 05:05:39;;;;;;;27.55;19.30;;;;;;;;;;4424624;32;20272;-86
2022/10/14 05:08:07;;;;;;;24.77;18.93;;;;;;;;;;4423161;32;20225;-87
2022/10/14 05:10:34;;;;;;;28.97;20.00;;;;;;;;;;4423270;32;20230;-87
2022/10/14 05:13:03;;;;;;;27.75;18.20;;;;;;;;;;4423650;32;20243;-87
2022/10/14 05:15:33;;;;;;;24.70;18.93;;;;;;;;;;4424155;32;20210;-86
2022/10/14 05:18:00;;;;;;;30.70;18.97;;;;;;;;;;4423318;32;20236;-86
2022/10/14 05:20:28;;;;;;;25.40;18.52;;;;;;;;;;4423481;32;20239;-85
2022/10/14 05:22:54;;;;;;;26.87;17.70;;;;;;;;;;4423380;32;20237;-87
2022/10/14 05:25:23;;;;;;;21.60;17.07;;;;;;;;;;4424180;32;20291;-87
2022/10/14 05:27:50;;;;;;;23.73;16.93;;;;;;;;;;4424006;32;20651;-86
2022/10/14 05:30:17;;;;;;;24.67;18.27;;;;;;;;;;4423998;32;20216;-87
2022/10/14 05:32:46;;;;;;;24.73;17.73;;;;;;;;;;4423182;32;20263;-87
2022/10/14 05:35:13;;;;;;;32.23;17.97;;;;;;;;;;4422939;32;20217;-87
2022/10/14 05:37:41;;;;;;;27.67;19.83;;;;;;;;;;4422339;32;20241;-86
2022/10/14 05:40:11;;;;;;;30.67;19.33;;;;;;;;;;4423587;32;20680;-87
2022/10/14 05:42:39;;;;;;;26.97;18.73;;;;;;;;;;4422818;32;20216;-86
2022/10/14 05:45:07;;;;;;;25.27;19.00;;;;;;;;;;4422957;32;20213;-86
2022/10/14 05:47:34;;;;;;;28.50;18.73;;;;;;;;;;4423001;32;20244;-87
2022/10/14 05:50:02;;;;;;;26.17;18.85;;;;;;;;;;4423347;32;20239;-87
2022/10/14 05:52:31;;;;;;;27.70;22.40;;;;;;;;;;4423419;32;20303;-87
2022/10/14 05:54:58;;;;;;;37.73;25.43;;;;;;;;;;4423863;32;20589;-87
2022/10/14 05:57:27;;;;;;;31.57;25.27;;;;;;;;;;4423802;32;20217;-87
2022/10/14 05:59:55;;;;;;;33.37;23.27;;;;;;;;;;4422995;32;20245;-86
2022/10/14 06:02:22;;;;;;;33.40;19.67;;;;;;;;;;4423424;32;20268;-87
2022/10/14 06:04:49;;;;;;;31.83;21.97;;;;;;;;;;4423081;32;20659;-87
2022/10/14 06:07:16;;;;;;;31.57;19.67;;;;;;;;;;4423060;32;20672;-87
2022/10/14 06:09:44;;;;;;;28.50;21.20;;;;;;;;;;4423654;32;20225;-87
2022/10/14 06:12:11;;;;;;;26.53;20.67;;;;;;;;;;4423116;32;20274;-87
2022/10/14 06:14:39;;;;;;;33.90;22.77;;;;;;;;;;4422775;32;20263;-88
2022/10/14 06:17:11;;;;;;;29.57;22.77;;;;;;;;;;4423115;32;20731;-87
2022/10/14 06:19:38;;;;;;;33.40;20.70;;;;;;;;;;4422870;32;20591;-88
2022/10/14 06:22:05;;;;;;;33.97;21.23;;;;;;;;;;4423312;32;20236;-87
2022/10/14 06:24:32;;;;;;;25.07;18.47;;;;;;;;;;4422695;32;20237;-88
2022/10/14 06:26:59;;;;;;;27.43;19.67;;;;;;;;;;4422620;32;20280;-88
2022/10/14 06:29:30;;;;;;;30.62;19.40;;;;;;;;;;4422896;32;20247;-88
2022/10/14 06:31:57;;;;;;;26.73;19.30;;;;;;;;;;4423265;32;20228;-88
2022/10/14 06:34:27;;;;;;;27.27;18.77;;;;;;;;;;4422613;32;20681;-88
2022/10/14 06:36:54;;;;;;;29.97;19.67;;;;;;;;;;4423030;32;20265;-88
2022/10/14 06:39:21;;;;;;;24.40;18.98;;;;;;;;;;4422793;32;20239;-86
2022/10/14 06:41:48;;;;;;;29.27;19.48;;;;;;;;;;4422221;32;20267;-88
2022/10/14 06:44:15;;;;;;;21.40;18.10;;;;;;;;;;4422386;32;20639;-88
2022/10/14 06:46:43;;;;;;;24.73;18.37;;;;;;;;;;4422529;32;20227;-88
2022/10/14 06:49:11;;;;;;;25.58;17.75;;;;;;;;;;4421975;32;20288;-87
2022/10/14 06:51:39;;;;;;;27.62;17.83;;;;;;;;;;4422107;32;20213;-86
2022/10/14 06:54:06;;;;;;;26.90;19.67;;;;;;;;;;4422487;32;20248;-89
2022/10/14 06:56:36;;;;;;;29.47;17.80;;;;;;;;;;4422545;32;20217;-89
2022/10/14 06:59:07;;;;;;;19.53;16.93;;;;;;;;;;4422058;32;20224;-87
2022/10/14 07:01:34;;;;;;;28.33;18.98;;;;;;;;;;4422643;32;20213;-89
2022/10/14 07:04:01;;;;;;;29.50;21.62;;;;;;;;;;4421973;32;20236;-88
2022/10/14 07:06:28;;;;;;;27.17;18.42;;;;;;;;;;4420946;32;20276;-88
2022/10/14 07:08:57;;;;;;;37.00;21.25;;;;;;;;;;4422158;32;20240;-88
2022/10/14 07:11:29;;;;;;;31.63;18.70;;;;;;;;;;4422273;32;20217;-88
2022/10/14 07:13:57;;;;;;;26.90;18.40;;;;;;;;;;4422167;32;20221;-88
2022/10/14 07:16:25;;;;;;;24.70;17.23;;;;;;;;;;4422270;32;20201;-87
2022/10/14 07:18:53;;;;;;;21.12;17.83;;;;;;;;;;4421907;32;20225;-87
2022/10/14 07:21:20;;;;;;;17.93;14.53;;;;;;;;;;4422488;32;20264;-88
2022/10/14 07:23:47;;;;;;;21.13;15.53;;;;;;;;;;4420823;32;20714;-87
2022/10/14 07:26:17;;;;;;;24.60;17.30;;;;;;;;;;4421830;32;20213;-87
2022/10/14 07:28:45;;;;;;;26.77;16.73;;;;;;;;;;4422291;32;20690;-88
2022/10/14 07:31:13;;;;;;;24.40;16.00;;;;;;;;;;4421799;32;20268;-86
2022/10/14 07:33:40;;;;;;;22.43;13.13;;;;;;;;;;4408035;32;20253;-87
2022/10/14 07:36:10;;;;;;;20.37;11.83;;;;;;;;;;4422120;32;20662;-87
2022/10/14 07:38:38;;;;;;;14.20;11.53;;;;;;;;;;4421442;32;20236;-86
2022/10/14 07:41:08;;;;;;;15.50;11.53;;;;;;;;;;4421446;32;20213;-87
2022/10/14 07:43:36;;;;;;;20.23;13.07;;;;;;;;;;4421430;32;20241;-88
2022/10/14 07:46:06;;;;;;;21.25;14.13;;;;;;;;;;4426255;32;20201;-89
2022/10/14 07:48:37;;;;;;;26.60;18.77;;;;;;;;;;4422167;32;20239;-86
2022/10/14 07:51:04;;;;;;;41.83;27.20;;;;;;;;;;4422797;32;20554;-86
2022/10/14 07:53:31;;;;;;;43.13;30.07;;;;;;;;;;4422096;32;20278;-87
2022/10/14 07:55:58;;;;;;;43.77;28.33;;;;;;;;;;4422254;32;20274;-90
2022/10/14 07:58:27;;;;;;;23.30;14.47;;;;;;;;;;4423116;32;20577;-88
2022/10/14 08:00:59;;;;;;;22.43;12.90;;;;;;;;;;4421726;32;20210;-86
2022/10/14 08:03:26;;;;;;;16.10;13.80;;;;;;;;;;4421412;32;20300;-86
2022/10/14 08:06:02;;;;;;;20.60;12.50;;;;;;;;;;4422035;32;20239;-86
2022/10/14 08:08:29;;;;;;;20.53;13.23;;;;;;;;;;4420840;32;20657;-87
2022/10/14 08:11:01;;;;;;;19.90;11.73;;;;;;;;;;4421177;32;20213;-87
2022/10/14 08:13:32;;;;;;;18.30;12.18;;;;;;;;;;4421351;32;20251;-87
2022/10/14 08:16:01;;;;;;;13.70;12.10;;;;;;;;;;4421696;32;20557;-87
2022/10/14 08:18:30;;;;;;;17.57;12.30;;;;;;;;;;4421316;32;20247;-89
2022/10/14 08:20:58;;;;;;;19.10;13.77;;;;;;;;;;4408083;32;20638;-87
2022/10/14 08:23:26;;;;;;;16.80;12.30;;;;;;;;;;4423562;32;20228;-87
2022/10/14 08:25:53;;;;;;;43.08;22.27;;;;;;;;;;4425344;32;20213;-87
2022/10/14 08:28:21;;;;;;;37.83;21.17;;;;;;;;;;4423649;32;20342;-87
2022/10/14 08:30:51;;;;;;;26.23;19.10;;;;;;;;;;4426685;32;20563;-87
2022/10/14 08:33:24;;;;;;;23.50;12.27;;;;;;;;;;4424965;32;20224;-88
2022/10/14 08:35:51;;;;;;;15.98;13.27;;;;;;;;;;4424777;32;20708;-87
2022/10/14 08:38:23;;;;;;;18.12;11.63;;;;;;;;;;4424278;32;20319;-86
2022/10/14 08:41:14;;;;;;;19.00;11.38;;;;;;;;;;4424715;32;20594;-86
2022/10/14 08:43:48;;;;;;;14.38;11.57;;;;;;;;;;4424465;32;20312;-87
2022/10/14 08:46:28;;;;;;;23.07;12.90;;;;;;;;;;4424954;32;20208;-85
2022/10/14 08:49:05;;;;;;;17.27;13.57;;;;;;;;;;4425911;32;20210;-85
2022/10/14 08:51:34;;;;;;;28.70;15.63;;;;;;;;;;4424532;32;20219;-87
2022/10/14 08:54:11;;;;;;;16.55;12.82;;;;;;;;;;4423411;32;20637;-87
2022/10/14 08:56:39;;;;;;;20.83;12.27;;;;;;;;;;4424034;32;20568;-87
2022/10/14 08:59:13;;;;;;;19.25;12.48;;;;;;;;;;4423978;32;20221;-87
2022/10/14 09:01:49;;;;;;;17.02;11.68;;;;;;;;;;4424623;32;20201;-87
2022/10/14 09:04:20;;;;;;;20.83;16.02;;;;;;;;;;4424893;32;20270;-86
2022/10/14 09:06:51;;;;;;;14.90;12.70;;;;;;;;;;4425997;32;20202;-87
2022/10/14 09:09:22;;;;;;;12.52;10.32;;;;;;;;;;4426508;32;20565;-87
2022/10/14 09:11:53;;;;;;;13.00;8.70;;;;;;;;;;4427890;32;20205;-86
2022/10/14 09:14:25;;;;;;;16.20;8.70;;;;;;;;;;4427791;32;20218;-87
2022/10/14 09:16:57;;;;;;;13.38;9.10;;;;;;;;;;4430033;32;20232;-87
2022/10/14 09:19:32;;;;;;;10.70;8.23;;;;;;;;;;4433964;32;20221;-87
2022/10/14 09:22:01;;;;;;;14.10;9.65;;;;;;;;;;4432502;32;20267;-87
2022/10/14 09:24:34;;;;;;;11.10;9.48;;;;;;;;;;4433136;32;20236;-85
2022/10/14 09:27:07;;;;;;;12.53;8.63;;;;;;;;;;4425826;32;20268;-86
2022/10/14 09:29:40;;;;;;;11.83;8.37;;;;;;;;;;4428140;32;20217;-86
2022/10/14 09:32:13;;;;;;;12.48;7.57;;;;;;;;;;4423493;32;20248;-85
2022/10/14 09:34:49;;;;;;;8.63;7.57;;;;;;;;;;4424322;32;20205;-86
2022/10/14 09:37:27;;;;;;;16.43;8.50;;;;;;;;;;4424374;32;20201;-86
2022/10/14 09:39:58;;;;;;;15.82;8.18;;;;;;;;;;4423639;32;20217;-86
2022/10/14 09:42:32;;;;;;;10.75;7.62;;;;;;;;;;4423885;32;20236;-87
2022/10/14 09:45:10;;;;;;;18.87;8.87;;;;;;;;;;4423381;32;20237;-87
2022/10/14 09:47:47;;;;;;;13.60;7.73;;;;;;;;;;4425069;32;20204;-86
2022/10/14 09:50:29;;;;;;;11.07;8.65;;;;;;;;;;4426153;32;20320;-86
2022/10/14 09:53:02;;;;;;;23.38;10.10;;;;;;;;;;4426670;32;20256;-85
2022/10/14 09:55:31;;;;;;;10.88;8.90;;;;;;;;;;4429192;32;20221;-85
2022/10/14 09:58:04;;;;;;;12.60;8.50;;;;;;;;;;4433200;32;20213;-86
2022/10/14 10:00:34;;;;;;;8.15;7.32;;;;;;;;;;4431564;32;20306;-86
2022/10/14 10:03:03;;;;;;;9.27;8.35;;;;;;;;;;4430230;32;20291;-87
2022/10/14 10:05:35;;;;;;;10.02;7.97;;;;;;;;;;4429362;32;20233;-86
2022/10/14 10:08:17;;;;;;;12.95;9.40;;;;;;;;;;4430366;32;20704;-86
2022/10/14 10:10:59;;;;;;;9.45;8.45;;;;;;;;;;4423583;32;20291;-87
2022/10/14 10:13:40;;;;;;;10.37;8.20;;;;;;;;;;4422421;32;20220;-87
2022/10/14 10:16:20;;;;;;;11.80;9.50;;;;;;;;;;4423439;32;20645;-86
2022/10/14 10:18:49;;;;;;;9.65;8.65;;;;;;;;;;4422221;32;20236;-86
2022/10/14 10:21:25;;;;;;;11.50;8.70;;;;;;;;;;4421722;32;20251;-86
2022/10/14 10:23:56;;;;;;;11.23;9.13;;;;;;;;;;4421324;32;20379;-88
2022/10/14 10:26:28;;;;;;;9.35;8.32;;;;;;;;;;4422480;32;20233;-86
2022/10/14 10:28:56;;;;;;;13.62;9.02;;;;;;;;;;4422570;32;20248;-87
2022/10/14 10:31:52;;;;;;;10.38;7.28;;;;;;;;;;4424195;32;20206;-85
2022/10/14 10:35:03;;;;;;;10.57;8.63;;;;;;;;;;4423976;32;20224;-86
2022/10/14 10:37:37;;;;;;;9.98;8.90;;;;;;;;;;4422887;32;20231;-89
2022/10/14 10:40:27;;;;;;;16.73;9.10;;;;;;;;;;4421635;32;20260;-86
2022/10/14 10:43:36;;;;;;;14.93;8.57;;;;;;;;;;4423096;32;20217;-89
2022/10/14 10:46:29;;;;;;;9.40;8.43;;;;;;;;;;4374438;32;20286;-87
2022/10/14 10:49:06;;;;;;;11.30;8.50;;;;;;;;;;4422943;32;20235;-88
2022/10/14 10:51:45;;;;;;;9.98;8.98;;;;;;;;;;4423056;32;20723;-88
2022/10/14 10:54:26;;;;;;;11.75;9.18;;;;;;;;;;4422847;32;20310;-89
2022/10/14 10:56:58;;;;;;;11.15;8.85;;;;;;;;;;4410046;32;20240;-88
2022/10/14 10:59:47;;;;;;;15.18;8.93;;;;;;;;;;4422558;32;20217;-87
2022/10/14 11:02:46;;;;;;;14.32;9.23;;;;;;;;;;4423013;32;20645;-88
2022/10/14 11:05:18;;;;;;;16.60;10.10;;;;;;;;;;4421962;32;20312;-88
2022/10/14 11:13:51;;;;;;;14.63;8.52;;;;;;;;;;4422919;32;20240;-88
2022/10/14 11:16:27;;;;;;;15.38;9.50;;;;;;;;;;4422803;32;20236;-88
2022/10/14 11:19:01;;;;;;;9.88;7.72;;;;;;;;;;4422649;32;20235;-87
2022/10/14 11:21:38;;;;;;;10.00;8.98;;;;;;;;;;4422424;32;20352;-88
2022/10/14 11:24:12;;;;;;;11.27;10.07;;;;;;;;;;4409785;32;20236;-87
2022/10/14 11:27:04;;;;;;;12.15;9.75;;;;;;;;;;4422436;32;20238;-88
2022/10/14 11:29:50;;;;;;;10.95;9.30;;;;;;;;;;4422304;32;20219;-87
2022/10/14 11:32:23;;;;;;;12.15;9.52;;;;;;;;;;4422082;32;20221;-87
2022/10/14 11:35:05;;;;;;;17.67;8.68;;;;;;;;;;4422443;32;20227;-88
2022/10/14 11:37:47;;;;;;;11.07;9.10;;;;;;;;;;4420819;32;20225;-87
2022/10/14 11:40:22;;;;;;;11.57;10.35;;;;;;;;;;4422547;32;20647;-88
2022/10/14 11:43:07;;;;;;;11.25;8.75;;;;;;;;;;4421836;32;20224;-87
2022/10/14 11:45:47;;;;;;;10.13;9.10;;;;;;;;;;4421634;32;20607;-87
2022/10/14 11:48:27;;;;;;;11.23;8.40;;;;;;;;;;4422252;32;20230;-87
2022/10/14 11:51:02;;;;;;;10.45;8.98;;;;;;;;;;4422249;32;20228;-86
2022/10/14 11:53:47;;;;;;;9.85;8.48;;;;;;;;;;4422487;32;20317;-87
2022/10/14 11:56:27;;;;;;;14.40;9.25;;;;;;;;;;4422061;32;20221;-87
2022/10/14 11:58:59;;;;;;;12.88;9.32;;;;;;;;;;4422425;32;20629;-87
2022/10/14 12:01:29;;;;;;;12.65;9.43;;;;;;;;;;4422057;32;20214;-87
2022/10/14 12:04:02;;;;;;;13.93;9.55;;;;;;;;;;4421943;32;20217;-87
2022/10/14 12:06:34;;;;;;;11.15;10.02;;;;;;;;;;4421775;32;20217;-87
2022/10/14 12:09:04;;;;;;;11.48;8.43;;;;;;;;;;4422526;32;20564;-86
2022/10/14 12:11:40;;;;;;;8.68;7.78;;;;;;;;;;4421683;32;20243;-87
2022/10/14 12:14:13;;;;;;;9.50;8.50;;;;;;;;;;4422041;32;20212;-87
2022/10/14 12:16:43;;;;;;;10.85;7.90;;;;;;;;;;4422305;32;20234;-87
2022/10/14 12:19:12;;;;;;;8.15;7.35;;;;;;;;;;4421533;32;20205;-87
2022/10/14 12:21:47;;;;;;;14.02;9.90;;;;;;;;;;4421454;32;20237;-87
2022/10/14 12:24:18;;;;;;;12.48;7.70;;;;;;;;;;4422188;32;20642;-87
2022/10/14 12:26:53;;;;;;;12.57;10.45;;;;;;;;;;4421720;32;20662;-87
2022/10/14 12:29:24;;;;;;;11.05;9.80;;;;;;;;;;4422223;32;20600;-87
2022/10/14 12:32:08;;;;;;;10.55;8.70;;;;;;;;;;4421839;32;20217;-87
2022/10/14 12:34:38;;;;;;;11.10;9.77;;;;;;;;;;4421790;32;20209;-87
2022/10/14 12:37:41;;;;;;;10.23;9.23;;;;;;;;;;4421549;32;20225;-87
2022/10/14 12:40:29;;;;;;;12.43;10.05;;;;;;;;;;4421528;32;20209;-87
2022/10/14 12:43:25;;;;;;;10.52;8.45;;;;;;;;;;4421155;32;20229;-87
2022/10/14 12:46:11;;;;;;;16.45;13.00;;;;;;;;;;4422279;32;20305;-87
2022/10/14 12:48:49;;;;;;;12.23;10.45;;;;;;;;;;4421721;32;20201;-87
2022/10/14 12:51:18;;;;;;;14.68;9.52;;;;;;;;;;4422069;32;20617;-87
2022/10/14 12:54:04;;;;;;;10.70;9.27;;;;;;;;;;4420374;32;20242;-88
2022/10/14 12:56:35;;;;;;;16.90;9.88;;;;;;;;;;4420873;32;20245;-86
2022/10/14 12:59:06;;;;;;;11.68;10.25;;;;;;;;;;4421967;32;20213;-87
2022/10/14 13:01:35;;;;;;;13.82;8.85;;;;;;;;;;4421757;32;20671;-87
2022/10/14 13:04:05;;;;;;;9.95;8.77;;;;;;;;;;4421194;32;20259;-87
2022/10/14 13:06:38;;;;;;;17.02;10.15;;;;;;;;;;4421846;32;20233;-87
2022/10/14 13:09:39;;;;;;;13.25;11.30;;;;;;;;;;4422788;32;20225;-87
2022/10/14 13:12:41;;;;;;;7.87;7.07;;;;;;;;;;4424494;32;20687;-87
2022/10/14 13:15:34;;;;;;;14.50;8.07;;;;;;;;;;4424732;32;20511;-87
2022/10/14 13:18:35;;;;;;;9.57;8.43;;;;;;;;;;4424817;32;20235;-87
2022/10/14 13:21:04;;;;;;;11.43;8.50;;;;;;;;;;4420460;32;20252;-86
2022/10/14 13:23:39;;;;;;;10.50;8.15;;;;;;;;;;4424521;32;20244;-87
2022/10/14 13:26:30;;;;;;;10.20;8.40;;;;;;;;;;4423218;32;20252;-86
2022/10/14 13:29:10;;;;;;;9.07;5.93;;;;;;;;;;4424435;32;20352;-87
2022/10/14 13:31:44;;;;;;;11.83;7.87;;;;;;;;;;4424156;32;20674;-86
2022/10/14 13:34:26;;;;;;;13.23;7.07;;;;;;;;;;4424712;32;20265;-86
2022/10/14 13:37:16;;;;;;;11.53;8.50;;;;;;;;;;4424056;32;20288;-87
2022/10/14 13:39:44;;;;;;;16.55;6.50;;;;;;;;;;4424323;32;20626;-86
2022/10/14 13:42:16;;;;;;;9.48;6.40;;;;;;;;;;4422867;32;20298;-86
2022/10/14 13:44:44;;;;;;;20.12;8.93;;;;;;;;;;4424219;32;20261;-87
2022/10/14 13:47:13;;;;;;;11.10;8.75;;;;;;;;;;4423775;32;20274;-87
2022/10/14 13:49:43;;;;;;;6.45;5.85;;;;;;;;;;4422540;32;20612;-86
2022/10/14 13:52:19;;;;;;;8.80;7.12;;;;;;;;;;4422645;32;20232;-87
2022/10/14 13:54:46;;;;;;;8.98;6.82;;;;;;;;;;4423297;32;20664;-87
2022/10/14 13:57:16;;;;;;;11.75;7.37;;;;;;;;;;4423578;32;20251;-86
2022/10/14 13:59:51;;;;;;;10.38;7.40;;;;;;;;;;4423566;32;20209;-86
2022/10/14 14:02:26;;;;;;;21.93;7.47;;;;;;;;;;4422516;32;20254;-87
2022/10/14 14:04:57;;;;;;;14.87;8.05;;;;;;;;;;4423382;32;20243;-87
2022/10/14 14:07:27;;;;;;;14.50;8.75;;;;;;;;;;4423394;32;20291;-87
2022/10/14 14:10:00;;;;;;;8.05;7.22;;;;;;;;;;4424145;32;20205;-87
2022/10/14 14:12:27;;;;;;;9.73;8.77;;;;;;;;;;4423416;32;20237;-86
2022/10/14 14:14:54;;;;;;;10.57;7.05;;;;;;;;;;4423682;32;20284;-87
2022/10/14 14:17:24;;;;;;;9.17;7.17;;;;;;;;;;4423344;32;20325;-86
2022/10/14 14:19:51;;;;;;;8.70;7.07;;;;;;;;;;4423687;32;20245;-86
2022/10/14 14:22:23;;;;;;;11.95;7.10;;;;;;;;;;4423235;32;20270;-87
2022/10/14 14:24:51;;;;;;;15.73;6.35;;;;;;;;;;4423683;32;20261;-87
2022/10/14 14:27:22;;;;;;;11.50;8.48;;;;;;;;;;4422854;32;20232;-87
2022/10/14 14:29:50;;;;;;;10.68;7.90;;;;;;;;;;4423602;32;20711;-87
2022/10/14 14:32:20;;;;;;;12.60;7.72;;;;;;;;;;4423006;32;20557;-87
2022/10/14 14:34:49;;;;;;;12.25;8.13;;;;;;;;;;4423502;32;20230;-86
2022/10/14 14:37:24;;;;;;;11.98;5.87;;;;;;;;;;4423090;32;20248;-86
2022/10/14 14:40:01;;;;;;;6.40;4.53;;;;;;;;;;4423530;32;20212;-86
2022/10/14 14:42:31;;;;;;;6.18;2.70;;;;;;;;;;4422883;32;20225;-87
2022/10/14 14:45:03;;;;;;;3.10;2.40;;;;;;;;;;4422960;32;20217;-86
2022/10/14 14:47:32;;;;;;;6.15;3.97;;;;;;;;;;4422774;32;20240;-87
2022/10/14 14:50:00;;;;;;;9.07;3.58;;;;;;;;;;4423312;32;20205;-87
2022/10/14 14:52:31;;;;;;;8.80;3.53;;;;;;;;;;4422963;32;20243;-87
2022/10/14 14:54:58;;;;;;;7.97;4.05;;;;;;;;;;4422434;32;20245;-87
2022/10/14 14:57:25;;;;;;;7.75;3.37;;;;;;;;;;4422642;32;20365;-86
2022/10/14 15:00:00;;;;;;;5.10;2.92;;;;;;;;;;4422645;32;20633;-87